createdAt,value
2023-04-28T00:00:14.436Z,10.05
2023-04-28T00:02:42.107Z,10.30
2023-04-28T00:05:10.557Z,10.77
2023-04-28T00:07:38.496Z,11.88
2023-04-28T00:10:07.282Z,11.38
2023-04-28T00:12:36.368Z,11.43
2023-04-28T00:15:04.531Z,11.15
2023-04-28T00:17:32.204Z,11.05
2023-04-28T00:19:59.969Z,11.38
2023-04-28T00:22:27.565Z,10.98
2023-04-28T00:24:55.199Z,12.02
2023-04-28T00:27:22.809Z,11.70
2023-04-28T00:29:51.980Z,11.50
2023-04-28T00:32:19.598Z,11.48
2023-04-28T00:34:47.184Z,11.90
2023-04-28T00:37:14.811Z,11.18
2023-04-28T00:39:45.559Z,12.40
2023-04-28T00:42:13.177Z,11.65
2023-04-28T00:44:41.615Z,11.00
2023-04-28T00:47:11.073Z,14.25
2023-04-28T00:49:38.956Z,11.77
2023-04-28T00:52:08.655Z,12.10
2023-04-28T00:54:36.852Z,11.55
2023-04-28T00:57:04.938Z,12.20
2023-04-28T00:59:32.799Z,12.50
2023-04-28T01:02:01.198Z,11.60
2023-04-28T01:04:30.825Z,11.93
2023-04-28T01:06:59.423Z,12.10
2023-04-28T01:09:27.147Z,12.18
2023-04-28T01:11:55.626Z,11.52
2023-04-28T01:14:23.291Z,12.02
2023-04-28T01:16:51.054Z,12.85
2023-04-28T01:19:22.584Z,11.57
2023-04-28T01:21:51.861Z,11.05
2023-04-28T01:24:21.044Z,12.00
2023-04-28T01:26:48.699Z,11.57
2023-04-28T01:29:16.390Z,12.32
2023-04-28T01:31:44.115Z,11.95
2023-04-28T01:34:11.878Z,11.52
2023-04-28T01:36:39.561Z,11.95
2023-04-28T01:39:07.657Z,11.32
2023-04-28T01:41:37.805Z,11.50
2023-04-28T01:44:07.614Z,11.57
2023-04-28T01:46:35.626Z,12.13
2023-04-28T01:49:03.279Z,11.48
2023-04-28T01:51:31.233Z,11.85
2023-04-28T01:53:58.831Z,10.73
2023-04-28T01:56:26.691Z,10.40
2023-04-28T01:58:55.617Z,11.40
2023-04-28T02:01:23.378Z,10.55
2023-04-28T02:03:51.253Z,10.75
2023-04-28T02:06:19.059Z,11.70
2023-04-28T02:08:46.657Z,11.25
2023-04-28T02:11:14.469Z,11.48
2023-04-28T02:13:42.223Z,11.50
2023-04-28T02:16:11.316Z,11.40
2023-04-28T02:18:39.024Z,11.23
2023-04-28T02:21:10.956Z,10.75
2023-04-28T02:23:38.673Z,11.63
2023-04-28T02:26:06.627Z,13.25
2023-04-28T02:28:34.374Z,10.23
2023-04-28T02:31:06.561Z,11.85
2023-04-28T02:33:36.015Z,12.10
2023-04-28T02:36:05.130Z,10.85
2023-04-28T02:38:33.065Z,11.88
2023-04-28T02:41:01.140Z,10.50
2023-04-28T02:43:29.028Z,11.20
2023-04-28T02:45:57.378Z,11.23
2023-04-28T02:48:25.118Z,11.35
2023-04-28T02:50:54.202Z,11.57
2023-04-28T02:53:22.169Z,11.38
2023-04-28T02:55:50.034Z,11.07
2023-04-28T02:58:18.572Z,12.88
2023-04-28T03:00:46.610Z,11.82
2023-04-28T03:03:14.573Z,11.80
2023-04-28T03:05:42.528Z,10.88
2023-04-28T03:08:11.589Z,10.98
2023-04-28T03:10:39.274Z,11.93
2023-04-28T03:13:07.192Z,10.65
2023-04-28T03:15:34.931Z,11.20
2023-04-28T03:18:02.701Z,11.57
2023-04-28T03:20:30.518Z,11.40
2023-04-28T03:22:58.211Z,10.93
2023-04-28T03:25:27.206Z,11.00
2023-04-28T03:27:54.864Z,10.90
2023-04-28T03:30:22.603Z,11.02
2023-04-28T03:32:50.502Z,11.48
2023-04-28T03:35:18.204Z,11.45
2023-04-28T03:37:45.853Z,11.63
2023-04-28T03:40:13.815Z,11.93
2023-04-28T03:42:42.845Z,11.95
2023-04-28T03:45:11.424Z,11.98
2023-04-28T03:47:39.272Z,11.82
2023-04-28T03:50:08.070Z,10.85
2023-04-28T03:52:35.688Z,11.10
2023-04-28T03:55:03.388Z,12.30
2023-04-28T03:57:31.026Z,11.85
2023-04-28T04:00:00.096Z,11.57
2023-04-28T04:02:27.960Z,11.25
2023-04-28T04:04:55.980Z,11.25
2023-04-28T04:07:24.085Z,11.98
2023-04-28T04:09:51.854Z,12.02
2023-04-28T04:12:19.929Z,11.77
2023-04-28T04:14:47.784Z,11.32
2023-04-28T04:17:17.001Z,11.35
2023-04-28T04:19:44.631Z,11.75
2023-04-28T04:22:12.275Z,10.55
2023-04-28T04:24:39.935Z,11.23
2023-04-28T04:27:07.594Z,11.60
2023-04-28T04:29:35.246Z,12.10
2023-04-28T04:32:02.940Z,11.27
2023-04-28T04:34:32.007Z,11.23
2023-04-28T04:36:59.681Z,11.38
2023-04-28T04:39:27.435Z,12.05
2023-04-28T04:41:55.123Z,11.13
2023-04-28T04:44:22.758Z,11.52
2023-04-28T04:46:50.456Z,10.88
2023-04-28T04:49:18.164Z,10.65
2023-04-28T04:51:47.579Z,10.85
2023-04-28T04:54:15.435Z,11.60
2023-04-28T04:56:43.337Z,10.95
2023-04-28T04:59:11.038Z,12.02
2023-04-28T05:01:38.746Z,11.02
2023-04-28T05:04:06.571Z,11.60
2023-04-28T05:06:34.697Z,11.10
2023-04-28T05:09:03.737Z,10.93
2023-04-28T05:11:31.401Z,10.65
2023-04-28T05:13:59.080Z,10.70
2023-04-28T05:16:26.768Z,10.30
2023-04-28T05:18:54.454Z,10.57
2023-04-28T05:21:22.303Z,9.35
2023-04-28T05:23:49.996Z,10.23
2023-04-28T05:26:19.131Z,9.65
2023-04-28T05:28:46.738Z,9.70
2023-04-28T05:31:14.397Z,9.60
2023-04-28T05:33:42.060Z,9.50
2023-04-28T05:36:10.213Z,9.23
2023-04-28T05:38:37.940Z,8.90
2023-04-28T05:41:06.122Z,9.13
2023-04-28T05:43:35.160Z,9.07
2023-04-28T05:46:02.976Z,9.40
2023-04-28T05:48:30.709Z,8.93
2023-04-28T05:50:58.310Z,8.70
2023-04-28T05:53:26.705Z,8.77
2023-04-28T05:55:54.451Z,9.00
2023-04-28T05:58:22.223Z,9.13
2023-04-28T06:00:51.376Z,9.30
2023-04-28T06:03:19.739Z,8.32
2023-04-28T06:05:47.823Z,9.98
2023-04-28T06:08:15.574Z,9.60
2023-04-28T06:10:43.278Z,9.63
2023-04-28T06:13:11.385Z,9.25
2023-04-28T06:15:40.330Z,9.02
2023-04-28T06:18:09.830Z,9.05
2023-04-28T06:20:37.791Z,9.50
2023-04-28T06:23:05.420Z,9.40
2023-04-28T06:25:33.204Z,8.80
2023-04-28T06:28:01.042Z,8.85
2023-04-28T06:30:28.774Z,8.70
2023-04-28T06:32:57.832Z,8.55
2023-04-28T06:35:27.037Z,8.93
2023-04-28T06:37:54.742Z,9.38
2023-04-28T06:40:22.407Z,8.77
2023-04-28T06:42:50.057Z,9.10
2023-04-28T06:45:17.949Z,8.27
2023-04-28T06:47:45.809Z,8.43
2023-04-28T06:50:13.680Z,9.00
2023-04-28T06:52:42.733Z,9.27
2023-04-28T06:55:11.271Z,8.55
2023-04-28T06:57:38.944Z,9.10
2023-04-28T07:00:08.255Z,8.55
2023-04-28T07:02:37.005Z,8.68
2023-04-28T07:05:05.493Z,8.88
2023-04-28T07:07:33.198Z,8.88
2023-04-28T07:10:02.261Z,8.57
2023-04-28T07:12:29.914Z,9.00
2023-04-28T07:14:57.576Z,8.52
2023-04-28T07:17:25.394Z,8.77
2023-04-28T07:19:53.083Z,9.40
2023-04-28T07:22:20.828Z,9.73
2023-04-28T07:24:48.535Z,9.10
2023-04-28T07:27:17.790Z,8.90
2023-04-28T07:29:45.535Z,9.73
2023-04-28T07:32:13.206Z,9.38
2023-04-28T07:34:40.981Z,9.45
2023-04-28T07:37:09.737Z,11.70
2023-04-28T07:39:39.242Z,8.93
2023-04-28T07:42:06.962Z,9.00
2023-04-28T07:44:36.395Z,8.68
2023-04-28T07:47:04.389Z,9.98
2023-04-28T07:49:32.335Z,8.75
2023-04-28T07:51:59.940Z,8.98
2023-04-28T07:54:27.614Z,9.30
2023-04-28T07:56:55.303Z,8.98
2023-04-28T07:59:22.962Z,9.50
2023-04-28T08:01:51.944Z,8.95
2023-04-28T08:04:20.149Z,8.98
2023-04-28T08:06:48.398Z,9.40
2023-04-28T08:09:16.324Z,8.93
2023-04-28T08:11:43.937Z,9.75
2023-04-28T08:14:11.645Z,9.27
2023-04-28T08:16:41.389Z,10.45
2023-04-28T08:19:10.721Z,9.02
2023-04-28T08:21:38.390Z,8.63
2023-04-28T08:24:06.913Z,8.85
2023-04-28T08:26:34.787Z,8.93
2023-04-28T08:29:02.579Z,8.23
2023-04-28T08:31:30.278Z,8.65
2023-04-28T08:33:57.933Z,8.80
2023-04-28T08:36:31.763Z,9.00
2023-04-28T08:38:59.712Z,9.35
2023-04-28T08:41:27.713Z,8.80
2023-04-28T08:43:55.445Z,9.10
2023-04-28T08:46:23.480Z,9.88
2023-04-28T08:48:51.375Z,9.88
2023-04-28T08:51:34.337Z,8.93
2023-04-28T08:54:22.842Z,8.60
2023-04-28T08:56:52.530Z,8.98
2023-04-28T08:59:20.587Z,8.38
2023-04-28T09:01:49.802Z,8.63
2023-04-28T09:04:18.516Z,9.13
2023-04-28T09:06:48.385Z,9.15
2023-04-28T09:09:23.206Z,8.50
2023-04-28T09:11:55.555Z,8.48
2023-04-28T09:14:23.973Z,9.05
2023-04-28T09:16:51.878Z,8.77
2023-04-28T09:19:19.980Z,8.95
2023-04-28T09:21:50.501Z,9.10
2023-04-28T09:24:28.757Z,8.50
2023-04-28T09:26:56.461Z,8.70
2023-04-28T09:29:24.171Z,9.50
2023-04-28T09:31:51.972Z,9.23
2023-04-28T09:34:19.672Z,9.00
2023-04-28T09:36:49.177Z,8.77
2023-04-28T09:39:16.931Z,8.30
2023-04-28T09:41:45.493Z,8.60
2023-04-28T09:44:15.148Z,8.90
2023-04-28T09:46:43.277Z,8.45
2023-04-28T09:49:11.032Z,8.43
2023-04-28T09:51:39.221Z,8.50
2023-04-28T09:54:08.366Z,8.45
2023-04-28T09:56:40.800Z,9.10
2023-04-28T09:59:08.658Z,9.10
2023-04-28T10:01:39.061Z,8.70
2023-04-28T10:04:07.512Z,8.77
2023-04-28T10:06:36.639Z,9.30
2023-04-28T10:09:04.654Z,8.77
2023-04-28T10:11:34.006Z,9.45
2023-04-28T10:14:01.737Z,8.70
2023-04-28T10:16:32.001Z,8.63
2023-04-28T10:18:59.885Z,9.02
2023-04-28T10:21:28.455Z,9.05
2023-04-28T10:24:11.251Z,9.25
2023-04-28T10:27:11.226Z,8.75
2023-04-28T10:29:39.067Z,8.38
2023-04-28T10:32:17.071Z,9.23
2023-04-28T10:34:44.839Z,9.10
2023-04-28T10:37:14.893Z,8.60
2023-04-28T10:39:42.668Z,8.50
2023-04-28T10:42:43.981Z,8.60
2023-04-28T10:45:13.387Z,9.20
2023-04-28T10:48:04.237Z,9.07
2023-04-28T10:50:39.155Z,8.00
2023-04-28T10:53:07.005Z,8.45
2023-04-28T10:55:37.167Z,8.32
2023-04-28T10:58:33.493Z,8.55
2023-04-28T11:01:27.696Z,8.65
2023-04-28T11:04:00.540Z,8.48
2023-04-28T11:06:29.540Z,9.23
2023-04-28T11:09:00.385Z,7.95
2023-04-28T11:11:28.675Z,8.68
2023-04-28T11:13:58.494Z,8.50
2023-04-28T11:16:27.696Z,8.70
2023-04-28T11:18:57.885Z,8.30
2023-04-28T11:21:28.258Z,8.50
2023-04-28T11:23:56.400Z,8.55
2023-04-28T11:26:24.691Z,8.45
2023-04-28T11:28:53.714Z,8.35
2023-04-28T11:31:23.591Z,8.48
2023-04-28T11:33:56.498Z,8.63
2023-04-28T11:36:32.878Z,8.38
2023-04-28T11:39:00.583Z,8.48
2023-04-28T11:41:28.378Z,9.18
2023-04-28T11:43:56.041Z,8.88
2023-04-28T11:46:24.944Z,8.63
2023-04-28T11:49:04.432Z,8.98
2023-04-28T11:51:34.529Z,9.00
2023-04-28T11:54:03.595Z,9.35
2023-04-28T11:56:32.083Z,9.55
2023-04-28T11:59:08.158Z,9.55
2023-04-28T12:01:38.052Z,10.23
2023-04-28T12:04:07.234Z,9.13
2023-04-28T12:06:35.045Z,9.10
2023-04-28T12:09:05.908Z,9.30
2023-04-28T12:11:33.691Z,9.55
2023-04-28T12:14:05.866Z,8.80
2023-04-28T12:19:15.273Z,9.02
2023-04-28T12:21:43.349Z,8.40
2023-04-28T12:24:18.592Z,8.95
2023-04-28T12:26:46.724Z,8.75
2023-04-28T12:29:36.738Z,9.18
2023-04-28T12:32:04.531Z,8.80
2023-04-28T12:34:34.381Z,9.43
2023-04-28T12:37:02.930Z,9.88
2023-04-28T12:39:31.123Z,8.82
2023-04-28T12:41:59.346Z,9.77
2023-04-28T12:44:28.087Z,9.70
2023-04-28T12:46:56.161Z,9.80
2023-04-28T12:49:23.852Z,10.43
2023-04-28T12:51:52.968Z,10.40
2023-04-28T12:54:20.615Z,9.23
2023-04-28T12:56:48.303Z,9.20
2023-04-28T12:59:16.413Z,8.85
2023-04-28T13:01:44.460Z,9.52
2023-04-28T13:04:13.062Z,9.23
2023-04-28T13:06:44.233Z,8.98
2023-04-28T13:09:14.872Z,9.05
2023-04-28T13:11:42.851Z,9.10
2023-04-28T13:14:10.497Z,9.73
2023-04-28T13:16:38.731Z,9.00
2023-04-28T13:19:09.597Z,8.88
2023-04-28T13:21:39.191Z,8.93
2023-04-28T13:24:07.501Z,9.02
2023-04-28T13:26:36.814Z,9.00
2023-04-28T13:29:04.966Z,9.30
2023-04-28T13:31:32.900Z,10.05
2023-04-28T13:34:02.042Z,9.30
2023-04-28T13:36:30.439Z,9.75
2023-04-28T13:38:59.054Z,9.90
2023-04-28T13:41:28.111Z,9.43
2023-04-28T13:43:57.136Z,10.00
2023-04-28T13:46:24.844Z,9.93
2023-04-28T13:48:52.529Z,9.23
2023-04-28T13:51:20.199Z,9.23
2023-04-28T13:53:47.950Z,9.70
2023-04-28T13:56:15.801Z,9.68
2023-04-28T13:58:43.522Z,9.65
2023-04-28T14:01:12.743Z,9.82
2023-04-28T14:03:41.267Z,10.10
2023-04-28T14:06:09.178Z,9.68
2023-04-28T14:08:36.803Z,9.25
2023-04-28T14:11:04.566Z,9.52
2023-04-28T14:13:32.526Z,9.93
2023-04-28T14:16:01.197Z,9.60
2023-04-28T14:18:30.196Z,9.85
2023-04-28T14:20:57.905Z,9.73
2023-04-28T14:23:25.673Z,9.88
2023-04-28T14:25:55.999Z,9.13
2023-04-28T14:28:23.934Z,9.00
2023-04-28T14:30:51.833Z,8.90
2023-04-28T14:33:19.574Z,9.38
2023-04-28T14:35:49.142Z,9.50
2023-04-28T14:38:16.907Z,9.30
2023-04-28T14:40:44.830Z,9.63
2023-04-28T14:43:13.912Z,10.35
2023-04-28T14:45:42.033Z,9.60
2023-04-28T14:48:10.610Z,9.73
2023-04-28T14:50:38.695Z,10.00
2023-04-28T14:53:07.836Z,10.13
2023-04-28T14:55:36.118Z,9.23
2023-04-28T14:58:04.398Z,9.35
2023-04-28T15:00:32.146Z,9.48
2023-04-28T15:03:00.043Z,9.55
2023-04-28T15:05:27.866Z,9.35
2023-04-28T15:07:55.588Z,10.13
2023-04-28T15:10:24.677Z,9.35
2023-04-28T15:12:52.315Z,9.50
2023-04-28T15:15:19.918Z,9.48
2023-04-28T15:17:47.628Z,9.57
2023-04-28T15:20:18.344Z,10.43
2023-04-28T15:22:45.983Z,10.38
2023-04-28T15:25:13.795Z,10.07
2023-04-28T15:27:42.819Z,10.57
2023-04-28T15:30:11.488Z,11.25
2023-04-28T15:32:39.183Z,10.35
2023-04-28T15:35:07.635Z,10.82
2023-04-28T15:37:45.024Z,10.25
2023-04-28T15:40:13.887Z,9.73
2023-04-28T15:42:45.005Z,10.77
2023-04-28T15:45:13.304Z,10.43
2023-04-28T15:47:41.314Z,9.82
2023-04-28T15:50:10.794Z,9.70
2023-04-28T15:52:40.637Z,9.90
2023-04-28T15:55:09.478Z,9.13
2023-04-28T15:57:37.801Z,9.45
2023-04-28T16:00:09.000Z,9.77
2023-04-28T16:02:37.131Z,10.00
2023-04-28T16:05:05.169Z,10.30
2023-04-28T16:07:38.098Z,10.25
2023-04-28T16:10:09.108Z,10.85
2023-04-28T16:12:36.824Z,13.55
2023-04-28T16:15:04.946Z,21.02
2023-04-28T16:17:35.946Z,16.17
2023-04-28T16:20:04.687Z,22.70
2023-04-28T16:22:32.500Z,15.48
2023-04-28T16:25:03.684Z,14.20
2023-04-28T16:27:31.817Z,21.63
2023-04-28T16:29:59.531Z,21.27
2023-04-28T16:32:27.390Z,28.88
2023-04-28T16:34:57.874Z,22.38
2023-04-28T16:37:25.573Z,27.83
2023-04-28T16:39:53.319Z,29.92
2023-04-28T16:42:22.485Z,26.80
2023-04-28T16:44:52.479Z,18.23
2023-04-28T16:47:20.712Z,18.15
2023-04-28T16:49:48.855Z,14.48
2023-04-28T16:52:18.141Z,15.95
2023-04-28T16:54:45.821Z,12.88
2023-04-28T16:57:13.478Z,12.85
2023-04-28T16:59:41.360Z,11.80
2023-04-28T17:02:09.316Z,10.68
2023-04-28T17:04:37.798Z,11.10
2023-04-28T17:07:05.949Z,13.32
2023-04-28T17:09:34.942Z,13.95
2023-04-28T17:12:03.788Z,14.20
2023-04-28T17:14:31.620Z,13.80
2023-04-28T17:16:59.254Z,12.15
2023-04-28T17:19:27.435Z,13.82
2023-04-28T17:21:55.720Z,13.15
2023-04-28T17:24:24.230Z,11.35
2023-04-28T17:26:53.271Z,12.05
2023-04-28T17:29:22.087Z,11.73
2023-04-28T17:31:49.973Z,10.60
2023-04-28T17:34:19.876Z,9.98
2023-04-28T17:36:47.580Z,9.82
2023-04-28T17:39:16.476Z,10.68
2023-04-28T17:42:44.660Z,9.93
2023-04-28T17:45:13.957Z,10.90
2023-04-28T17:47:41.617Z,9.63
2023-04-28T17:50:10.596Z,9.77
2023-04-28T17:52:38.834Z,9.73
2023-04-28T17:55:07.399Z,10.05
2023-04-28T17:57:35.084Z,10.00
2023-04-28T18:00:02.739Z,9.18
2023-04-28T18:02:32.309Z,9.30
2023-04-28T18:05:00.214Z,8.85
2023-04-28T18:07:28.057Z,8.93
2023-04-28T18:09:57.155Z,9.18
2023-04-28T18:12:25.893Z,9.13
2023-04-28T18:14:53.974Z,9.13
2023-04-28T18:17:23.174Z,9.68
2023-04-28T18:19:55.186Z,9.45
2023-04-28T18:22:22.996Z,9.98
2023-04-28T18:24:50.914Z,9.35
2023-04-28T18:27:20.028Z,10.57
2023-04-28T18:29:47.719Z,8.82
2023-04-28T18:32:15.374Z,9.65
2023-04-28T18:34:43.417Z,9.70
2023-04-28T18:37:12.518Z,10.45
2023-04-28T18:39:40.220Z,11.13
2023-04-28T18:42:07.884Z,11.57
2023-04-28T18:44:35.827Z,9.48
2023-04-28T18:47:03.506Z,10.32
2023-04-28T18:49:32.271Z,10.95
2023-04-28T18:52:03.465Z,14.55
2023-04-28T18:54:32.854Z,12.77
2023-04-28T18:57:00.572Z,12.60
2023-04-28T18:59:28.232Z,11.50
2023-04-28T19:01:56.025Z,11.07
2023-04-28T19:04:23.896Z,11.82
2023-04-28T19:06:51.869Z,11.07
2023-04-28T19:09:19.673Z,10.77
2023-04-28T19:11:49.135Z,10.57
2023-04-28T19:14:17.776Z,12.73
2023-04-28T19:16:45.618Z,11.55
2023-04-28T19:19:13.739Z,12.77
2023-04-28T19:21:43.153Z,11.68
2023-04-28T19:24:12.573Z,11.80
2023-04-28T19:26:40.392Z,10.13
2023-04-28T19:29:12.404Z,9.63
2023-04-28T19:31:41.171Z,9.95
2023-04-28T19:34:08.890Z,9.65
2023-04-28T19:36:37.067Z,9.35
2023-04-28T19:39:05.045Z,10.23
2023-04-28T19:41:33.223Z,8.88
2023-04-28T19:44:02.034Z,8.73
2023-04-28T19:46:31.638Z,9.77
2023-04-28T19:48:59.643Z,9.52
2023-04-28T19:51:28.020Z,8.90
2023-04-28T19:53:56.653Z,8.55
2023-04-28T19:56:25.278Z,8.98
2023-04-28T19:58:54.709Z,8.40
2023-04-28T20:01:23.127Z,8.00
2023-04-28T20:03:52.295Z,8.52
2023-04-28T20:06:20.061Z,8.27
2023-04-28T20:08:47.663Z,8.30
2023-04-28T20:11:15.330Z,8.98
2023-04-28T20:13:42.966Z,9.23
2023-04-28T20:16:10.684Z,9.15
2023-04-28T20:18:38.412Z,8.80
2023-04-28T20:21:07.518Z,8.68
2023-04-28T20:23:36.693Z,19.30
2023-04-28T20:26:05.348Z,17.13
2023-04-28T20:28:33.112Z,17.42
2023-04-28T20:31:00.812Z,20.00
2023-04-28T20:33:28.671Z,38.95
2023-04-28T20:35:56.338Z,15.77
2023-04-28T20:38:25.412Z,12.20
2023-04-28T20:40:53.084Z,9.65
2023-04-28T20:43:20.889Z,10.48
2023-04-28T20:45:48.564Z,9.55
2023-04-28T20:48:16.176Z,8.20
2023-04-28T20:50:45.200Z,8.85
2023-04-28T20:53:13.276Z,8.75
2023-04-28T20:55:42.252Z,8.27
2023-04-28T20:58:09.886Z,8.15
2023-04-28T21:00:40.365Z,8.73
2023-04-28T21:03:08.279Z,8.70
2023-04-28T21:05:36.415Z,8.20
2023-04-28T21:08:04.278Z,8.40
2023-04-28T21:10:32.371Z,8.35
2023-04-28T21:13:01.371Z,9.20
2023-04-28T21:15:29.032Z,8.30
2023-04-28T21:17:57.024Z,8.82
2023-04-28T21:20:24.938Z,8.23
2023-04-28T21:22:53.060Z,8.13
2023-04-28T21:25:20.792Z,7.97
2023-04-28T21:27:48.440Z,7.80
2023-04-28T21:30:17.559Z,7.90
2023-04-28T21:32:45.330Z,7.90
2023-04-28T21:35:13.670Z,8.00
2023-04-28T21:37:41.828Z,8.23
2023-04-28T21:40:10.317Z,7.78
2023-04-28T21:42:37.978Z,7.45
2023-04-28T21:45:07.417Z,8.15
2023-04-28T21:47:36.548Z,7.97
2023-04-28T21:50:05.537Z,7.88
2023-04-28T21:52:33.221Z,8.20
2023-04-28T21:55:00.909Z,8.05
2023-04-28T21:57:28.584Z,8.10
2023-04-28T21:59:56.324Z,7.72
2023-04-28T22:02:25.020Z,8.07
2023-04-28T22:04:55.145Z,7.78
2023-04-28T22:07:22.798Z,8.38
2023-04-28T22:09:50.684Z,8.05
2023-04-28T22:12:18.740Z,8.13
2023-04-28T22:14:46.408Z,8.05
2023-04-28T22:17:14.123Z,8.52
2023-04-28T22:19:41.755Z,9.15
2023-04-28T22:22:11.139Z,8.07
2023-04-28T22:24:38.867Z,8.27
2023-04-28T22:27:06.521Z,8.45
2023-04-28T22:29:34.397Z,8.50
2023-04-28T22:32:02.825Z,8.45
2023-04-28T22:34:30.735Z,8.52
2023-04-28T22:36:58.402Z,8.02
2023-04-28T22:39:27.474Z,8.38
2023-04-28T22:41:55.676Z,8.95
2023-04-28T22:44:23.339Z,7.90
2023-04-28T22:46:51.070Z,8.27
2023-04-28T22:49:24.371Z,8.60
2023-04-28T22:51:52.061Z,8.73
2023-04-28T22:54:19.699Z,8.00
2023-04-28T22:56:49.866Z,7.97
2023-04-28T22:59:18.463Z,7.88
2023-04-28T23:01:46.191Z,7.63
2023-04-28T23:04:14.111Z,7.60
2023-04-28T23:06:41.901Z,8.18
2023-04-28T23:09:09.568Z,8.05
2023-04-28T23:11:37.252Z,8.02
2023-04-28T23:14:06.344Z,7.82
2023-04-28T23:16:34.155Z,8.65
2023-04-28T23:19:01.890Z,8.35
2023-04-28T23:21:29.580Z,8.20
2023-04-28T23:23:57.204Z,7.72
2023-04-28T23:26:25.515Z,7.80
2023-04-28T23:28:53.385Z,7.78
2023-04-28T23:31:22.622Z,8.10
2023-04-28T23:33:50.250Z,8.05
2023-04-28T23:36:18.530Z,7.95
2023-04-28T23:38:46.492Z,8.30
2023-04-28T23:41:14.222Z,8.38
2023-04-28T23:43:41.866Z,8.20
2023-04-28T23:46:09.815Z,7.85
2023-04-28T23:48:38.863Z,8.20
2023-04-28T23:51:06.556Z,8.30
2023-04-28T23:53:34.194Z,8.60
2023-04-28T23:56:01.944Z,9.23
2023-04-28T23:58:29.536Z,9.00
